Swallowfield Close, Crewe weather

Latitude N 53° 04' 54" Longitude W 02° 27' 25" Elevation 52 m Grid Ref SJ69475393

This page shows a table of observations data for today using the Cumulus "recent history" webtags facility. It is experimental only. The table shows data observations at 10 minute intervals for the 8 hours prior to 09:40 on Saturday 28 March i.e. the time this page was processed by Cumulus. Ideally in the long-term this will be replaced by a script to read data/realtimelog.txt for the current (or selectable) date and display all the observations for the applicable meteorological date (28/03/2020 in this case) starting at midnight (rollover time). This will fix the start of the observations table to a defined point.

The graph shows the same data but at 5-minute intervals.


Table of observations data (at 10-minute intervals) for Swallowfield Close, Crewe since 00:40 on 28/03/2020
Observations
Time Temp Wind Chill Dewpoint Pressure Wind Speed Wind Gust Wind Dir Humidity Rainfall
00:40 2.7 °C 2.7 °C -3.8 °C 1028.3 hPa 4.1 km/h 6.1 km/h 62 % 0.0 mm
00:50 2.9 °C 2.9 °C -3.2 °C 1028.5 hPa 4.2 km/h 6.1 km/h 64 % 0.0 mm
01:00 3.1 °C 1.6 °C -1.6 °C 1028.3 hPa 5.7 km/h 8.6 km/h 71 % 0.0 mm
01:10 3.2 °C 1.1 °C -1.4 °C 1028.3 hPa 7.8 km/h 8.6 km/h 72 % 0.0 mm
01:20 3.1 °C 1.5 °C -1.3 °C 1028.4 hPa 6.2 km/h 8.6 km/h 73 % 0.0 mm
01:30 3.1 °C 1.2 °C -1.3 °C 1028.4 hPa 7.0 km/h 12.2 km/h 73 % 0.0 mm
01:40 3.0 °C 1.4 °C -1.2 °C 1028.5 hPa 6.2 km/h 7.2 km/h 74 % 0.0 mm
01:50 3.0 °C 1.2 °C -1.0 °C 1028.5 hPa 6.6 km/h 8.6 km/h 75 % 0.0 mm
02:00 3.0 °C 1.5 °C -0.6 °C 1028.5 hPa 5.9 km/h 9.7 km/h 77 % 0.0 mm
02:10 3.0 °C 1.5 °C -0.3 °C 1028.4 hPa 5.7 km/h 8.6 km/h 79 % 0.0 mm
02:20 3.0 °C 3.0 °C -0.1 °C 1028.6 hPa 4.8 km/h 7.2 km/h 80 % 0.0 mm
02:30 3.0 °C 3.0 °C 0.1 °C 1028.5 hPa 4.1 km/h 6.1 km/h 81 % 0.0 mm
02:40 2.8 °C 2.8 °C -0.6 °C 1028.6 hPa 3.2 km/h 5.0 km/h 78 % 0.0 mm
02:50 2.7 °C 2.7 °C -0.7 °C 1028.5 hPa 3.2 km/h 7.2 km/h 78 % 0.0 mm
03:00 2.5 °C 2.5 °C -0.8 °C 1028.6 hPa 2.6 km/h 3.6 km/h 79 % 0.0 mm
03:10 2.1 °C 2.1 °C -1.2 °C 1028.6 hPa 2.5 km/h 3.6 km/h 79 % 0.0 mm
03:20 1.6 °C 1.6 °C -1.6 °C 1028.7 hPa 0.7 km/h 2.5 km/h 79 % 0.0 mm
03:30 1.1 °C 1.1 °C -2.1 °C 1028.7 hPa 1.4 km/h 2.5 km/h 79 % 0.0 mm
03:40 0.7 °C 0.7 °C -2.3 °C 1028.6 hPa 0.0 km/h 0.0 km/h 80 % 0.0 mm
03:50 0.5 °C 0.5 °C -2.5 °C 1028.7 hPa 0.2 km/h 2.5 km/h 80 % 0.0 mm
04:00 0.5 °C 0.5 °C -2.4 °C 1028.6 hPa 3.2 km/h 3.6 km/h 81 % 0.0 mm
04:10 0.4 °C 0.4 °C -2.5 °C 1028.5 hPa 1.8 km/h 3.6 km/h 81 % 0.0 mm
04:20 0.2 °C 0.2 °C -2.5 °C 1028.7 hPa 0.1 km/h 1.1 km/h 82 % 0.0 mm
04:30 0.2 °C 0.2 °C -2.5 °C 1028.7 hPa 1.1 km/h 3.6 km/h 82 % 0.0 mm
04:40 0.3 °C 0.3 °C -2.2 °C 1028.8 hPa 1.5 km/h 3.6 km/h 83 % 0.0 mm
04:50 0.5 °C 0.5 °C -1.9 °C 1028.8 hPa 2.2 km/h 2.5 km/h 84 % 0.0 mm
05:00 1.2 °C 1.2 °C -1.2 °C 1028.9 hPa 0.1 km/h 2.5 km/h 84 % 0.0 mm
05:10 1.6 °C 1.6 °C -0.5 °C 1028.9 hPa 0.0 km/h 0.0 km/h 86 % 0.0 mm
05:20 1.9 °C 1.9 °C 0.0 °C 1029.0 hPa 0.0 km/h 0.0 km/h 87 % 0.0 mm
05:30 2.1 °C 2.1 °C 0.0 °C 1029.0 hPa 0.0 km/h 0.0 km/h 86 % 0.0 mm
05:40 2.5 °C 2.5 °C 0.6 °C 1029.2 hPa 0.3 km/h 2.5 km/h 87 % 0.0 mm
05:50 3.0 °C 3.0 °C 1.8 °C 1029.2 hPa 1.4 km/h 2.5 km/h 92 % 0.0 mm
06:00 3.4 °C 3.4 °C 2.4 °C 1029.2 hPa 0.9 km/h 2.5 km/h 93 % 0.0 mm
06:10 4.1 °C 4.1 °C 2.9 °C 1029.4 hPa 4.4 km/h 11.2 km/h 92 % 0.0 mm
06:20 4.9 °C 2.8 °C 3.9 °C 1029.4 hPa 8.8 km/h 15.8 km/h 93 % 0.0 mm
06:30 5.4 °C 4.1 °C 3.7 °C 1029.4 hPa 6.3 km/h 9.7 km/h 89 % 0.0 mm
06:40 5.7 °C 4.4 °C 3.0 °C 1029.5 hPa 6.3 km/h 9.7 km/h 83 % 0.0 mm
06:50 5.8 °C 4.4 °C 1.9 °C 1029.6 hPa 6.8 km/h 9.7 km/h 76 % 0.0 mm
07:00 5.9 °C 5.9 °C 1.4 °C 1029.7 hPa 4.7 km/h 7.2 km/h 73 % 0.0 mm
07:10 5.9 °C 4.8 °C 1.2 °C 1029.8 hPa 5.9 km/h 6.1 km/h 72 % 0.0 mm
07:20 6.7 °C 6.0 °C 1.8 °C 1029.9 hPa 5.0 km/h 8.6 km/h 71 % 0.0 mm
07:30 7.9 °C 7.1 °C 2.2 °C 1030.0 hPa 5.8 km/h 8.6 km/h 67 % 0.0 mm
07:40 7.8 °C 6.7 °C 1.0 °C 1030.0 hPa 6.9 km/h 11.2 km/h 62 % 0.0 mm
07:50 8.6 °C 7.4 °C 1.7 °C 1030.2 hPa 8.0 km/h 13.3 km/h 62 % 0.0 mm
08:00 8.2 °C 6.1 °C 1.4 °C 1030.3 hPa 12.3 km/h 18.4 km/h 62 % 0.0 mm
08:10 8.3 °C 6.7 °C 1.7 °C 1030.5 hPa 9.7 km/h 23.4 km/h 63 % 0.0 mm
08:20 8.7 °C 6.8 °C 2.1 °C 1030.5 hPa 11.6 km/h 18.4 km/h 63 % 0.0 mm
08:30 9.3 °C 7.2 °C 2.2 °C 1030.5 hPa 14.1 km/h 19.4 km/h 61 % 0.0 mm
08:40 9.4 °C 7.3 °C 1.8 °C 1030.7 hPa 14.0 km/h 19.4 km/h 59 % 0.0 mm
08:50 9.0 °C 6.9 °C 1.4 °C 1030.8 hPa 13.4 km/h 25.6 km/h 59 % 0.0 mm
09:00 9.2 °C 7.4 °C 2.1 °C 1030.8 hPa 11.5 km/h 18.4 km/h 61 % 0.0 mm
09:10 9.4 °C 7.8 °C 1.8 °C 1031.0 hPa 10.6 km/h 13.3 km/h 59 % 0.0 mm
09:20 9.3 °C 7.1 °C 1.2 °C 1031.1 hPa 14.7 km/h 19.4 km/h 57 % 0.0 mm
09:30 9.0 °C 7.0 °C 0.7 °C 1031.2 hPa 13.0 km/h 18.4 km/h 56 % 0.0 mm
:now: :trends: :gauges: :today/yesterday: :observations:
:month/year: :monthly records: :all-time records: :annual data: :noaa reports: :seasonal averages:
:mobile: :forum: :webcam: :system:



Page updated 28/03/2020 09:40:29
powered by Cumulus v1.9.4 (1099)